地図

経路データ

SID SEASON NUMBER BASIN SUBBASIN NAME ISO_TIME NATURE LAT LON WMO_WIND WMO_PRES WMO_AGENCY TRACK_TYPE DIST2LAND LANDFALL IFLAG USA_AGENCY USA_ATCF_ID USA_LAT USA_LON USA_RECORD USA_STATUS USA_WIND USA_PRES USA_SSHS USA_R34_NE USA_R34_SE USA_R34_SW USA_R34_NW USA_R50_NE USA_R50_SE USA_R50_SW USA_R50_NW USA_R64_NE USA_R64_SE USA_R64_SW USA_R64_NW USA_POCI USA_ROCI USA_RMW USA_EYE TOKYO_LAT TOKYO_LON TOKYO_GRADE TOKYO_WIND TOKYO_PRES TOKYO_R50_DIR TOKYO_R50_LONG TOKYO_R50_SHORT TOKYO_R30_DIR TOKYO_R30_LONG TOKYO_R30_SHORT TOKYO_LAND CMA_LAT CMA_LON CMA_CAT CMA_WIND CMA_PRES HKO_LAT HKO_LON HKO_CAT HKO_WIND HKO_PRES NEWDELHI_LAT NEWDELHI_LON NEWDELHI_GRADE NEWDELHI_WIND NEWDELHI_PRES NEWDELHI_CI NEWDELHI_DP NEWDELHI_POCI REUNION_LAT REUNION_LON REUNION_TYPE REUNION_WIND REUNION_PRES REUNION_TNUM REUNION_CI REUNION_RMW REUNION_R34_NE REUNION_R34_SE REUNION_R34_SW REUNION_R34_NW REUNION_R50_NE REUNION_R50_SE REUNION_R50_SW REUNION_R50_NW REUNION_R64_NE REUNION_R64_SE REUNION_R64_SW REUNION_R64_NW BOM_LAT BOM_LON BOM_TYPE BOM_WIND BOM_PRES BOM_TNUM BOM_CI BOM_RMW BOM_R34_NE BOM_R34_SE BOM_R34_SW BOM_R34_NW BOM_R50_NE BOM_R50_SE BOM_R50_SW BOM_R50_NW BOM_R64_NE BOM_R64_SE BOM_R64_SW BOM_R64_NW BOM_ROCI BOM_POCI BOM_EYE BOM_POS_METHOD BOM_PRES_METHOD NADI_LAT NADI_LON NADI_CAT NADI_WIND NADI_PRES WELLINGTON_LAT WELLINGTON_LON WELLINGTON_WIND WELLINGTON_PRES DS824_LAT DS824_LON DS824_STAGE DS824_WIND DS824_PRES TD9636_LAT TD9636_LON TD9636_STAGE TD9636_WIND TD9636_PRES TD9635_LAT TD9635_LON TD9635_WIND TD9635_PRES TD9635_ROCI NEUMANN_LAT NEUMANN_LON NEUMANN_CLASS NEUMANN_WIND NEUMANN_PRES MLC_LAT MLC_LON MLC_CLASS MLC_WIND MLC_PRES USA_GUST BOM_GUST BOM_GUST_PER REUNION_GUST REUNION_GUST_PER USA_SEAHGT USA_SEARAD_NE USA_SEARAD_SE USA_SEARAD_SW USA_SEARAD_NW STORM_SPEED STORM_DIR
1982215N10236 1982 56 EP MM JOHN 1982-08-02 12:00:00 TS 9.80000 -123.700 25 hurdat_epa main 2067 2066 O_________O___ hurdat_epa EP101982 9.80000 -123.700 TD 25 -1 9.80000 -123.700 1 25 7 297
1982215N10236 1982 56 EP MM JOHN 1982-08-02 15:00:00 TS 9.95284 -124.005 main 2071 2071 P_________P___ EP101982 9.96257 -124.010 TD 25 -1 9.92367 -123.989 1 25 7 296
1982215N10236 1982 56 EP MM JOHN 1982-08-02 18:00:00 TS 10.0869 -124.293 25 hurdat_epa main 2081 2081 O_________P___ hurdat_epa EP101982 10.1000 -124.300 TD 25 -1 10.0478 -124.272 1 25 6 294
1982215N10236 1982 56 EP MM JOHN 1982-08-02 21:00:00 TS 10.1932 -124.554 main 2092 2090 P_________P___ EP101982 10.2000 -124.558 TD 25 -1 10.1730 -124.545 1 25 5 293
1982215N10236 1982 56 EP MM JOHN 1982-08-03 00:00:00 TS 10.3000 -124.800 25 hurdat_epa main 2096 2094 O_________O___ hurdat_epa EP101982 10.3000 -124.800 TD 25 -1 10.3000 -124.800 1 25 6 297
1982215N10236 1982 56 EP MM JOHN 1982-08-03 03:00:00 TS 10.4447 -125.052 main 2108 2098 P_________P___ EP101982 10.4500 -125.057 TD 25 -1 10.4289 -125.035 1 26 6 301
1982215N10236 1982 56 EP MM JOHN 1982-08-03 06:00:00 TS 10.5893 -125.289 25 hurdat_epa main 2105 2103 O_________P___ hurdat_epa EP101982 10.6000 -125.300 TD 25 -1 10.5573 -125.258 1 27 5 301
1982215N10236 1982 56 EP MM JOHN 1982-08-03 09:00:00 TS 10.7011 -125.494 main 2110 2109 P_________P___ EP101982 10.7075 -125.500 TD 27 -1 10.6821 -125.476 1 28 5 298
1982215N10236 1982 56 EP MM JOHN 1982-08-03 12:00:00 TS 10.8000 -125.700 30 hurdat_epa main 2116 2115 O_________O___ hurdat_epa EP101982 10.8000 -125.700 TD 30 -1 10.8000 -125.700 1 30 5 295
1982215N10236 1982 56 EP MM JOHN 1982-08-03 15:00:00 TS 10.9017 -125.926 main 2122 2121 P_________P___ EP101982 10.9000 -125.943 TD 30 -1 10.9066 -125.878 1 30 5 294
1982215N10236 1982 56 EP MM JOHN 1982-08-03 18:00:00 TS 11.0016 -126.168 30 hurdat_epa main 2135 2134 O_________P___ hurdat_epa EP101982 11.0000 -126.200 TD 30 -1 11.0065 -126.073 1 30 5 293
1982215N10236 1982 56 EP MM JOHN 1982-08-03 21:00:00 TS 11.0950 -126.381 main 2142 2142 P_________P___ EP101982 11.0923 -126.398 TD 30 -1 11.1032 -126.331 1 30 6 291
1982215N10236 1982 56 EP MM JOHN 1982-08-04 00:00:00 TS 11.2000 -126.700 30 hurdat_epa main 2156 2156 O_________O___ hurdat_epa EP101982 11.2000 -126.700 TD 30 -1 11.2000 -126.700 1 30 9 287
1982215N10236 1982 56 EP MM JOHN 1982-08-04 03:00:00 TS 11.3473 -127.233 main 2186 2185 P_________P___ EP101982 11.3575 -127.232 TD 32 -1 11.3167 -127.235 1 31 12 284
1982215N10236 1982 56 EP MM JOHN 1982-08-04 06:00:00 TS 11.4827 -127.895 35 hurdat_epa main 2224 2224 O_________P___ hurdat_epa EP101982 11.5000 -127.900 TS 35 0 11.4307 -127.880 1 32 13 279
1982215N10236 1982 56 EP MM JOHN 1982-08-04 09:00:00 TS 11.5617 -128.591 main 2272 2272 P_________P___ EP101982 11.5725 -128.593 TS 35 0 11.5291 -128.585 1 33 14 275
1982215N10236 1982 56 EP MM JOHN 1982-08-04 12:00:00 TS 11.6000 -129.300 35 hurdat_epa main 2328 2328 O_________O___ hurdat_epa EP101982 11.6000 -129.300 TS 35 0 11.6000 -129.300 2 35 13 272
1982215N10236 1982 56 EP MM JOHN 1982-08-04 15:00:00 TS 11.6105 -129.955 main 2384 2384 P_________P___ EP101982 11.6073 -129.958 TS 37 0 11.6201 -129.946 2 38 13 270
1982215N10236 1982 56 EP MM JOHN 1982-08-04 18:00:00 TS 11.6036 -130.598 40 hurdat_epa main 2425 2425 O_________P___ hurdat_epa EP101982 11.6000 -130.600 TS 40 0 11.6143 -130.593 2 42 13 269
1982215N10236 1982 56 EP MM JOHN 1982-08-04 21:00:00 TS 11.5946 -131.243 main 2468 2468 P_________P___ EP101982 11.5923 -131.243 TS 45 0 11.6014 -131.243 2 46 13 270
1982215N10236 1982 56 EP MM JOHN 1982-08-05 00:00:00 TS 11.6000 -131.900 50 hurdat_epa main 2518 2518 O_________O___ hurdat_epa EP101982 11.6000 -131.900 TS 50 0 11.6000 -131.900 2 50 13 272
1982215N10236 1982 56 EP MM JOHN 1982-08-05 03:00:00 TS 11.6396 -132.592 main 2534 2470 P_________P___ EP101982 11.6424 -132.600 TS 52 0 11.6312 -132.568 2 53 14 274
1982215N10236 1982 56 EP MM JOHN 1982-08-05 06:00:00 TS 11.6942 -133.286 55 hurdat_epa main 2460 2400 O_________P___ hurdat_epa EP101982 11.7000 -133.300 TS 55 0 11.6770 -133.243 2 57 13 275
1982215N10236 1982 56 EP MM JOHN 1982-08-05 09:00:00 TS 11.7459 -133.948 main 2400 2326 P_________P___ EP101982 11.7498 -133.958 TS 60 0 11.7343 -133.921 2 61 13 275
1982215N10236 1982 56 EP MM JOHN 1982-08-05 12:00:00 TS 11.8000 -134.600 65 hurdat_epa main 2326 2266 O_________O___ hurdat_epa EP101982 11.8000 -134.600 HU 65 1 11.8000 -134.600 3 65 13 275
1982215N10236 1982 56 EP MM JOHN 1982-08-05 15:00:00 TS 11.8506 -135.252 main 2252 2193 P_________P___ EP101982 11.8423 -135.243 HU 70 1 11.8755 -135.279 3 70 13 275
1982215N10236 1982 56 EP MM JOHN 1982-08-05 18:00:00 TS 11.9142 -135.914 75 hurdat_epa main 2193 2119 O_________P___ hurdat_epa EP101982 11.9000 -135.900 HU 75 1 11.9570 -135.957 3 75 13 277
1982215N10236 1982 56 EP MM JOHN 1982-08-05 21:00:00 TS 12.0087 -136.608 main 2119 2046 P_________P___ EP101982 11.9999 -136.600 HU 80 1 12.0349 -136.632 3 80 14 278
1982215N10236 1982 56 EP MM JOHN 1982-08-06 00:00:00 TS 12.1000 -137.300 85 hurdat_epa main 2046 1982 O_________O___ hurdat_epa EP101982 12.1000 -137.300 HU 85 2 12.1000 -137.300 4 85 13 276
1982215N10236 1982 56 EP MM JOHN 1982-08-06 03:00:00 TS 12.1584 -137.961 main 1972 1914 P_________P___ EP101982 12.1648 -137.958 HU 87 2 12.1390 -137.970 4 86 13 274
1982215N10236 1982 56 EP MM JOHN 1982-08-06 06:00:00 TS 12.1911 -138.608 90 hurdat_epa main 1914 1856 O_________P___ hurdat_epa EP101982 12.2000 -138.600 HU 90 2 12.1646 -138.630 4 87 13 272
1982215N10236 1982 56 EP MM JOHN 1982-08-06 09:00:00 TS 12.1957 -139.268 main 1847 1790 P_________P___ EP101982 12.1999 -139.265 HU 90 2 12.1828 -139.276 4 88 13 270
1982215N10236 1982 56 EP MM JOHN 1982-08-06 12:00:00 TS 12.2000 -139.900 90 hurdat_epa main 1790 1742 O_________O___ hurdat_epa EP101982 12.2000 -139.900 HU 90 2 12.2000 -139.900 4 90 12 272
1982215N10236 1982 56 EP CP JOHN 1982-08-06 15:00:00 TS 12.2434 -140.468 main 1733 1680 P_________P___ EP101982 12.2498 -140.457 HU 95 2 12.2245 -140.501 4 92 11 275
1982215N10236 1982 56 EP CP JOHN 1982-08-06 18:00:00 TS 12.2881 -141.019 100 hurdat_epa main 1680 1624 O_________P___ hurdat_epa EP101982 12.3000 -141.000 HU 100 3 12.2493 -141.080 4 95 11 273
1982215N10236 1982 56 EP CP JOHN 1982-08-06 21:00:00 TS 12.2930 -141.611 main 1624 1569 P_________P___ EP101982 12.3000 -141.600 HU 100 3 12.2745 -141.644 4 97 12 271
1982215N10236 1982 56 EP CP JOHN 1982-08-07 00:00:00 TS 12.3000 -142.200 100 hurdat_epa main 1569 1523 O_________O___ hurdat_epa EP101982 12.3000 -142.200 HU 100 3 12.3000 -142.200 4 100 11 273
1982215N10236 1982 56 EP CP JOHN 1982-08-07 03:00:00 TS 12.3448 -142.757 main 1514 1463 P_________P___ EP101982 12.3498 -142.757 HU 100 3 12.3245 -142.753 4 100 11 275
1982215N10236 1982 56 EP CP JOHN 1982-08-07 06:00:00 TS 12.3899 -143.300 100 hurdat_epa main 1463 1418 O_________P___ hurdat_epa EP101982 12.4000 -143.300 HU 100 3 12.3494 -143.300 4 100 11 273
1982215N10236 1982 56 EP CP JOHN 1982-08-07 09:00:00 TS 12.3948 -143.843 main 1418 1366 P_________P___ EP101982 12.3998 -143.843 HU 100 3 12.3745 -143.847 4 100 11 271
1982215N10236 1982 56 EP CP JOHN 1982-08-07 12:00:00 TS 12.4000 -144.400 100 hurdat_epa main 1366 1314 O_________O___ hurdat_epa EP101982 12.4000 -144.400 HU 100 3 12.4000 -144.400 4 100 11 273
1982215N10236 1982 56 EP CP JOHN 1982-08-07 15:00:00 TS 12.4441 -144.994 main 1314 1256 P_________P___ EP101982 12.4500 -145.000 HU 100 3 12.4207 -144.972 4 100 12 274
1982215N10236 1982 56 EP CP JOHN 1982-08-07 18:00:00 TS 12.4884 -145.590 100 hurdat_epa main 1256 1215 O_________P___ hurdat_epa EP101982 12.5000 -145.600 HU 100 3 12.4422 -145.550 4 100 11 272
1982215N10236 1982 56 EP CP JOHN 1982-08-07 21:00:00 TS 12.4935 -146.168 main 1207 1167 P_________P___ EP101982 12.5000 -146.188 HU 100 3 12.4676 -146.128 4 100 11 271
1982215N10236 1982 56 EP CP JOHN 1982-08-08 00:00:00 TS 12.5000 -146.700 100 hurdat_epa main 1167 1136 O_________O___ hurdat_epa EP101982 12.5000 -146.700 HU 100 3 12.5000 -146.700 4 100 9 273
1982215N10236 1982 56 EP CP JOHN 1982-08-08 03:00:00 TS 12.5429 -147.122 main 1136 1097 P_________P___ EP101982 12.5420 -147.020 HU 97 3 12.5462 -147.241 4 92 9 277
1982215N10236 1982 56 EP CP JOHN 1982-08-08 06:00:00 TS 12.5998 -147.575 95 hurdat_epa main 1089 1036 O_________P___ hurdat_epa EP101982 12.6000 -147.400 HU 95 2 12.5991 -147.777 4 85 10 276
1982215N10236 1982 56 EP CP JOHN 1982-08-08 09:00:00 TS 12.6565 -148.189 main 1036 985 P_________P___ EP101982 12.6576 -148.075 HU 82 1 12.6524 -148.325 4 77 13 274
1982215N10236 1982 56 EP CP JOHN 1982-08-08 12:00:00 TS 12.7000 -148.900 70 hurdat_epa main 985 937 O_________O___ hurdat_epa EP101982 12.7000 -148.900 HU 70 1 12.7000 -148.900 4 70 15 272
1982215N10236 1982 56 EP CP JOHN 1982-08-08 15:00:00 TS 12.7074 -149.685 main 930 887 P_________P___ EP101982 12.7003 -149.795 HU 70 1 12.7360 -149.513 4 65 15 270
1982215N10236 1982 56 EP CP JOHN 1982-08-08 18:00:00 TS 12.7129 -150.431 70 hurdat_epa main 887 849 O_________P___ hurdat_epa EP101982 12.7000 -150.600 HU 70 1 12.7646 -150.155 4 60 12 272
1982215N10236 1982 56 EP CP JOHN 1982-08-08 21:00:00 TS 12.7566 -150.961 main 843 817 P_________P___ EP101982 12.7491 -151.050 HU 60 0 12.7859 -150.819 4 55 10 275
1982215N10236 1982 56 EP CP JOHN 1982-08-09 00:00:00 TS 12.8000 -151.500 50 hurdat_epa main 817 778 O_________O___ hurdat_epa EP101982 12.8000 -151.500 TS 50 0 12.8000 -151.500 2 50 13 272
1982215N10236 1982 56 EP CP JOHN 1982-08-09 03:00:00 TS 12.8070 -152.296 main 773 737 P_________P___ EP101982 12.8081 -152.335 TS 50 0 12.8034 -152.226 2 46 16 270
1982215N10236 1982 56 EP CP JOHN 1982-08-09 06:00:00 TS 12.8001 -153.112 50 hurdat_epa main 737 715 O_________P___ hurdat_epa EP101982 12.8000 -153.200 TS 50 0 12.8005 -152.960 2 42 14 269
1982215N10236 1982 56 EP CP JOHN 1982-08-09 09:00:00 TS 12.7933 -153.765 main 712 698 P_________P___ EP101982 12.7922 -153.825 TS 42 0 12.7973 -153.664 2 38 12 270
1982215N10236 1982 56 EP CP JOHN 1982-08-09 12:00:00 TS 12.8000 -154.300 35 hurdat_epa main 698 691 O_________O___ hurdat_epa EP101982 12.8000 -154.300 TS 35 0 12.8000 -154.300 2 35 9 273
1982215N10236 1982 56 EP CP JOHN 1982-08-09 15:00:00 TS 12.8423 -154.720 main 691 674 P_________P___ EP101982 12.8497 -154.650 TS 35 0 12.8127 -154.814 2 33 8 276
1982215N10236 1982 56 EP CP JOHN 1982-08-09 18:00:00 TS 12.8867 -155.112 35 hurdat_epa main 674 671 O_________P___ hurdat_epa EP101982 12.9000 -155.000 TS 35 0 12.8336 -155.260 2 32 9 273
1982215N10236 1982 56 EP CP JOHN 1982-08-09 21:00:00 TS 12.8926 -155.598 main 671 671 P_________P___ EP101982 12.9001 -155.535 TS 32 -1 12.8628 -155.676 2 31 10 271
1982215N10236 1982 56 EP CP JOHN 1982-08-10 00:00:00 TS 12.9000 -156.100 30 hurdat_epa main 672 672 O_________O___ hurdat_epa EP101982 12.9000 -156.100 TD 30 -1 12.9000 -156.100 1 30 9 273
1982215N10236 1982 56 EP CP JOHN 1982-08-10 03:00:00 TS 12.9422 -156.542 main 676 667 P_________P___ EP101982 12.9423 -156.550 TD 30 -1 12.9418 -156.533 1 30 9 276
1982215N10236 1982 56 EP CP JOHN 1982-08-10 06:00:00 TS 12.9982 -156.998 30 hurdat_epa main 674 674 O_________P___ hurdat_epa EP101982 13.0000 -157.000 TD 30 -1 12.9909 -156.988 1 30 9 277
1982215N10236 1982 56 EP CP JOHN 1982-08-10 09:00:00 TS 13.0486 -157.487 main 687 677 P_________P___ EP101982 13.0495 -157.475 TD 30 -1 13.0446 -157.499 1 30 11 275
1982215N10236 1982 56 EP CP JOHN 1982-08-10 12:00:00 TS 13.1000 -158.100 30 hurdat_epa main 697 697 O_________O___ hurdat_epa EP101982 13.1000 -158.100 TD 30 -1 13.1000 -158.100 1 30 14 274
1982215N10236 1982 56 EP CP JOHN 1982-08-10 15:00:00 TS 13.1511 -158.928 main 723 723 P_________P___ EP101982 13.1506 -159.028 TD 30 -1 13.1542 -158.815 1 30 17 273
1982215N10236 1982 56 EP CP JOHN 1982-08-10 18:00:00 TS 13.2012 -159.825 30 hurdat_epa main 773 773 O_________P___ hurdat_epa EP101982 13.2000 -160.000 TD 30 -1 13.2060 -159.625 1 30 17 273
1982215N10236 1982 56 EP CP JOHN 1982-08-10 21:00:00 TS 13.2510 -160.643 main 816 816 P_________P___ EP101982 13.2498 -160.770 TD 30 -1 13.2547 -160.497 1 30 15 274
1982215N10236 1982 56 EP CP JOHN 1982-08-11 00:00:00 TS 13.3000 -161.400 30 hurdat_epa main 873 O_________O___ hurdat_epa EP101982 13.3000 -161.400 TD 30 -1 13.3000 -161.400 1 30 15 274

IBTrACS Databaseについて

本データベースは、米国NOAAが公開する1842年以降の世界の熱帯低気圧のベストトラックデータアーカイブInternational Best Track Archive for Climate Stewardship (IBTrACS)を、ウェブで閲覧しやすい形式に変換したものです。

最終更新日:2021-10-27